Terminal Aerodrome Forecast
Issued by NWS

Home | Current Version | Previous Version | Text Only | Print | Product List | Glossary On
Versions: 1 2 3 4 5 6 7 8 9 10 11 12 13 14 15 16 17 18 19 20
000
FTUS43 KPAH 312336
TAFCGI
TAF
KCGI 312336Z 0100/0124 36008KT P6SM VCSH BKN016
     FM010230 01007KT 6SM BR OVC009
     FM010815 03005KT 3SM -DZ BR OVC007
     FM011530 02007KT P6SM BKN018 OVC030
     FM012200 01007KT P6SM SCT020 BKN080=

USA.gov is the U.S. government's official web portal to all federal, state and local government web resources and services.